Pagina principale
METAR-TAF:

METAR-TAF

Aeroporti :

Aeroporto di Ginevra-Cointrin

Ginevra, Svizzera

latitudine: 46-15N, longitudine: 006-08E, altezza: 420 m

Osservazione

Il bollettino è stato emesso 44 minuti fa, alle 23:20 UTC
Vento 1 kt da direzioni variabili
Temperature 18°C
Umidità 83%
Pressione 1018 hPa
Visibilità 10 km o più
nessuna nube inferiore a 1500 m e nessun cumulonembo

METAR: LSGG 142320Z AUTO VRB01KT CAVOK 18/15 Q1018 NOSIG

Ora: 02:04 (00:04 UTC)

Previsione

Il bollettino è stato emesso 39 minuti fa, alle 23:25 UTC
Previsione valida dal 15 alle 00 UTC al 16 alle 06 UTC
Vento 2 kt da direzioni variabili
Visibilità 10 km o più
nessuna nube inferiore a 1500 m e nessun cumulonembo
Evoluzione graduale
dal 15 alle 08 UTC al 15 alle 10 UTC
Visibilità 10 km o più
Poco nuvoloso ad un'altezza di 4000 ft

TAF: LSGG 142325Z 1500/1606 VRB02KT CAVOK TX30/1515Z TN15/1504Z TN16/1604Z BECMG 1508/1510 9999 FEW040

Osservazioni e previsioni meteorologiche di più di 4000 aeroporti (messaggi METAR e TAF).

Le stazioni disponibili sono rappresentate dai dischi gialli e rossi sulla carta.

Puntare il mouse per vedere il nome della stazione.

Clicca sopra per visualizzare le osservazioni e previsioni meteorologiche.

Per cambiare la mappa : fare clic sui pulsanti verdi con una croce nera per ingrandire, il pulsante verde con un trattino per diminuire, o sulla freccia verde per le mappe adiacenti.


METAR-TAF: